Pantego, Texas
Current Conditions -  °F | °C
As of 4:53 PM on Saturday 25 Oct 2014 (Local Time) from KGKY Reporting Station
Clear Clear  
Wind Chill: 88°   Ceiling: Unl
Heat Index: 88°   Visibility: 10mi
Dew Point: 57°   Wind: 9mph
Humidity: 35%   Direction: 180°S
Pressure: 30.06"   Gusts: NA
Location:  32.6916°N, 97.1334°W
Report Text: KGKY 252153Z 18008KT 10SM CLR 31/14 A3006 RMK AO2 SLP172 T03110139
Loading
Personal Weather Stations






























Interactive Weather Map
Tropical Storm Tracking
New forecast layout! Learn more

10-Day Weather Forecast

Advertisements
Track Severe Weather on mobile